Time;durP1;ratioP1;P1;durP2;ratioP2;P2;SDS_P1;SDS_P2;PMS_P1;PMS_P2;Temp;Humidity;BMP_temperature;BMP_pressure;BME280_temperature;BME280_humidity;BME280_pressure;Samples;Min_cycle;Max_cycle;Signal;HPM_P1;HPM_P2
2022/03/25 00:00:32;;;;;;;6.88;4.00;;;;;;;;;;5047999;28;20061;-71
2022/03/25 00:02:58;;;;;;;11.38;4.78;;;;;;;;;;5043167;28;20021;-72
2022/03/25 00:05:24;;;;;;;7.18;4.00;;;;;;;;;;5043439;28;20158;-71
2022/03/25 00:07:50;;;;;;;7.63;4.38;;;;;;;;;;5044283;28;20095;-71
2022/03/25 00:10:16;;;;;;;10.80;4.32;;;;;;;;;;5048366;28;20036;-71
2022/03/25 00:12:43;;;;;;;7.53;4.05;;;;;;;;;;5048932;28;20033;-70
2022/03/25 00:15:09;;;;;;;8.55;4.15;;;;;;;;;;5045815;28;20027;-71
2022/03/25 00:17:35;;;;;;;9.07;4.25;;;;;;;;;;5043295;28;20076;-70
2022/03/25 00:20:01;;;;;;;6.72;4.00;;;;;;;;;;5044419;28;20102;-70
2022/03/25 00:22:27;;;;;;;6.82;4.38;;;;;;;;;;5044946;28;20096;-71
2022/03/25 00:24:53;;;;;;;7.25;4.18;;;;;;;;;;5051496;28;20473;-71
2022/03/25 00:27:19;;;;;;;8.38;4.18;;;;;;;;;;5043918;28;20017;-72
2022/03/25 00:29:45;;;;;;;7.32;4.55;;;;;;;;;;5044036;28;20099;-71
2022/03/25 00:32:11;;;;;;;7.03;4.32;;;;;;;;;;5043562;28;20446;-71
2022/03/25 00:34:37;;;;;;;8.48;4.20;;;;;;;;;;5043982;28;20096;-71
2022/03/25 00:37:04;;;;;;;7.00;3.90;;;;;;;;;;5050366;28;20119;-71
2022/03/25 00:39:30;;;;;;;8.50;4.30;;;;;;;;;;5045947;28;20029;-72
2022/03/25 00:41:56;;;;;;;8.52;4.30;;;;;;;;;;5043547;28;20468;-71
2022/03/25 00:44:22;;;;;;;8.85;4.30;;;;;;;;;;5043552;28;20041;-71
2022/03/25 00:46:48;;;;;;;10.80;4.50;;;;;;;;;;5043736;28;20084;-72
2022/03/25 00:49:14;;;;;;;8.93;4.00;;;;;;;;;;5048592;28;20485;-71
2022/03/25 00:51:40;;;;;;;6.45;3.72;;;;;;;;;;5047172;28;20051;-71
2022/03/25 00:54:06;;;;;;;7.85;4.13;;;;;;;;;;5042485;28;20037;-71
2022/03/25 00:56:32;;;;;;;7.45;4.20;;;;;;;;;;5043680;28;20023;-71
2022/03/25 00:58:58;;;;;;;7.65;4.05;;;;;;;;;;5043634;28;20028;-71
2022/03/25 01:01:25;;;;;;;9.15;4.38;;;;;;;;;;5044897;28;20022;-71
2022/03/25 01:03:51;;;;;;;7.95;4.00;;;;;;;;;;5049590;28;20376;-71
2022/03/25 01:06:18;;;;;;;8.20;4.20;;;;;;;;;;5044375;28;20543;-71
2022/03/25 01:08:44;;;;;;;7.38;4.13;;;;;;;;;;5043430;28;20075;-71
2022/03/25 01:11:10;;;;;;;6.72;3.50;;;;;;;;;;5042950;28;20025;-71
2022/03/25 01:13:36;;;;;;;6.55;3.92;;;;;;;;;;5043360;28;20044;-71
2022/03/25 01:16:07;;;;;;;7.97;4.05;;;;;;;;;;5049490;28;20029;-71
2022/03/25 01:18:33;;;;;;;7.70;4.20;;;;;;;;;;5047415;28;20025;-72
2022/03/25 01:20:59;;;;;;;6.78;4.30;;;;;;;;;;5043214;28;20100;-72
2022/03/25 01:23:26;;;;;;;6.30;3.58;;;;;;;;;;5043290;28;20045;-72
2022/03/25 01:25:53;;;;;;;7.10;4.10;;;;;;;;;;5042954;28;20017;-71
2022/03/25 01:28:19;;;;;;;7.68;3.70;;;;;;;;;;5046525;28;20396;-71
2022/03/25 01:30:45;;;;;;;7.00;4.03;;;;;;;;;;5047389;28;20052;-71
2022/03/25 01:33:11;;;;;;;9.52;4.45;;;;;;;;;;5042512;28;20049;-71
2022/03/25 01:35:37;;;;;;;6.57;3.92;;;;;;;;;;5042818;28;20036;-71
2022/03/25 01:38:04;;;;;;;9.25;4.30;;;;;;;;;;5038545;28;20033;-71
2022/03/25 01:40:30;;;;;;;6.20;3.80;;;;;;;;;;5043302;28;20017;-71
2022/03/25 01:42:56;;;;;;;8.32;4.05;;;;;;;;;;5050224;28;20450;-71
2022/03/25 01:45:34;;;;;;;6.93;3.97;;;;;;;;;;5042800;28;20050;-72
2022/03/25 01:48:01;;;;;;;7.50;3.90;;;;;;;;;;5042964;28;20025;-72
2022/03/25 01:50:27;;;;;;;6.65;4.18;;;;;;;;;;5042893;28;20029;-71
2022/03/25 01:52:53;;;;;;;8.55;3.95;;;;;;;;;;5043529;28;20089;-71
2022/03/25 01:55:21;;;;;;;7.28;4.03;;;;;;;;;;5045862;28;20030;-71
2022/03/25 01:57:48;;;;;;;8.20;3.97;;;;;;;;;;5049610;28;20041;-71
2022/03/25 02:00:15;;;;;;;9.02;3.72;;;;;;;;;;5046661;28;20516;-71
2022/03/25 02:02:43;;;;;;;6.53;3.45;;;;;;;;;;5035950;28;20025;-72
2022/03/25 02:05:09;;;;;;;6.93;3.88;;;;;;;;;;5044235;28;20840;-72
2022/03/25 02:07:35;;;;;;;8.32;4.00;;;;;;;;;;5042925;28;20083;-72
2022/03/25 02:10:01;;;;;;;7.07;3.80;;;;;;;;;;5049719;28;20114;-72
2022/03/25 02:12:28;;;;;;;6.95;3.60;;;;;;;;;;5043740;28;20036;-71
2022/03/25 02:14:57;;;;;;;6.47;3.53;;;;;;;;;;5042023;28;20020;-71
2022/03/25 02:17:23;;;;;;;7.63;4.13;;;;;;;;;;5043761;28;20382;-71
2022/03/25 02:19:49;;;;;;;6.38;3.65;;;;;;;;;;5034148;28;20104;-71
2022/03/25 02:22:15;;;;;;;6.88;3.47;;;;;;;;;;5049681;28;20112;-71
2022/03/25 02:24:41;;;;;;;10.13;3.78;;;;;;;;;;5049871;28;20594;-71
2022/03/25 02:27:07;;;;;;;8.82;4.03;;;;;;;;;;5045786;28;20021;-72
2022/03/25 02:29:33;;;;;;;6.90;3.67;;;;;;;;;;5046618;28;20020;-71
2022/03/25 02:32:00;;;;;;;7.03;3.75;;;;;;;;;;5045617;28;20052;-71
2022/03/25 02:34:26;;;;;;;7.65;3.88;;;;;;;;;;5047457;28;20033;-72
2022/03/25 02:36:52;;;;;;;7.90;3.90;;;;;;;;;;5052917;28;20598;-71
2022/03/25 02:39:18;;;;;;;7.18;4.20;;;;;;;;;;5046442;28;20037;-72
2022/03/25 02:41:44;;;;;;;6.05;3.72;;;;;;;;;;5046107;28;20416;-71
2022/03/25 02:44:11;;;;;;;6.70;3.92;;;;;;;;;;5046335;28;20032;-72
2022/03/25 02:46:37;;;;;;;6.32;3.65;;;;;;;;;;5045646;28;20036;-71
2022/03/25 02:49:04;;;;;;;6.75;3.55;;;;;;;;;;5053070;28;20074;-71
2022/03/25 02:51:30;;;;;;;8.60;3.60;;;;;;;;;;5047390;28;20025;-71
2022/03/25 02:53:56;;;;;;;7.68;4.10;;;;;;;;;;5045792;28;20034;-72
2022/03/25 02:56:24;;;;;;;6.03;3.33;;;;;;;;;;5045434;28;20021;-71
2022/03/25 02:58:50;;;;;;;9.18;4.20;;;;;;;;;;5045886;28;20021;-72
2022/03/25 03:01:17;;;;;;;6.57;3.95;;;;;;;;;;5048918;28;20032;-71
2022/03/25 03:03:43;;;;;;;7.30;4.18;;;;;;;;;;5050042;28;20036;-72
2022/03/25 03:06:09;;;;;;;6.93;3.70;;;;;;;;;;5045387;28;20040;-71
2022/03/25 03:08:35;;;;;;;7.28;3.75;;;;;;;;;;5047373;28;20076;-71
2022/03/25 03:11:02;;;;;;;6.30;3.67;;;;;;;;;;5046737;28;20350;-71
2022/03/25 03:13:28;;;;;;;6.10;3.33;;;;;;;;;;5046444;28;20041;-71
2022/03/25 03:15:54;;;;;;;6.18;3.80;;;;;;;;;;5052190;28;20367;-72
2022/03/25 03:18:20;;;;;;;5.82;3.63;;;;;;;;;;5044500;28;20066;-72
2022/03/25 03:20:47;;;;;;;6.95;4.00;;;;;;;;;;5045210;28;20021;-71
2022/03/25 03:23:13;;;;;;;12.15;3.65;;;;;;;;;;5045252;28;20029;-71
2022/03/25 03:25:39;;;;;;;7.65;3.90;;;;;;;;;;5045550;28;20488;-71
2022/03/25 03:28:05;;;;;;;10.82;3.67;;;;;;;;;;5051502;28;20116;-72
2022/03/25 03:30:32;;;;;;;6.80;3.78;;;;;;;;;;5050311;28;20042;-71
2022/03/25 03:32:58;;;;;;;7.65;4.00;;;;;;;;;;5040355;28;20076;-72
2022/03/25 03:35:25;;;;;;;6.97;3.35;;;;;;;;;;5044871;28;20025;-71
2022/03/25 03:37:51;;;;;;;5.95;3.53;;;;;;;;;;5044414;28;20127;-71
2022/03/25 03:40:17;;;;;;;7.00;3.65;;;;;;;;;;5048836;28;20044;-71
2022/03/25 03:42:44;;;;;;;6.90;3.80;;;;;;;;;;5049803;28;20029;-71
2022/03/25 03:45:10;;;;;;;6.85;3.97;;;;;;;;;;5046235;28;20476;-72
2022/03/25 03:47:36;;;;;;;8.50;3.42;;;;;;;;;;5044524;28;20029;-71
2022/03/25 03:50:03;;;;;;;6.63;3.78;;;;;;;;;;5044526;28;20044;-71
2022/03/25 03:52:30;;;;;;;5.68;3.50;;;;;;;;;;5013619;28;20022;-71
2022/03/25 03:54:56;;;;;;;7.18;3.63;;;;;;;;;;5051322;28;20104;-71
2022/03/25 03:57:22;;;;;;;6.88;3.70;;;;;;;;;;5045139;28;20033;-71
2022/03/25 03:59:48;;;;;;;6.45;3.53;;;;;;;;;;5045953;28;20070;-72
2022/03/25 04:02:15;;;;;;;6.07;3.80;;;;;;;;;;5039667;28;20036;-71
2022/03/25 04:04:41;;;;;;;8.90;3.47;;;;;;;;;;5044061;28;20375;-71
2022/03/25 04:07:07;;;;;;;7.18;3.40;;;;;;;;;;5050207;28;20021;-71
2022/03/25 04:09:33;;;;;;;6.75;3.88;;;;;;;;;;5047070;28;20025;-71
2022/03/25 04:11:59;;;;;;;7.10;3.67;;;;;;;;;;5045978;28;20029;-71
2022/03/25 04:14:25;;;;;;;7.10;3.88;;;;;;;;;;5046155;28;20037;-72
2022/03/25 04:16:51;;;;;;;7.43;3.83;;;;;;;;;;5044815;28;20426;-71
2022/03/25 04:19:17;;;;;;;6.53;3.83;;;;;;;;;;5047556;28;20025;-71
2022/03/25 04:21:43;;;;;;;7.13;3.80;;;;;;;;;;5047182;28;20436;-71
2022/03/25 04:24:09;;;;;;;8.10;3.80;;;;;;;;;;5044642;28;20040;-70
2022/03/25 04:26:35;;;;;;;7.25;3.78;;;;;;;;;;5044257;28;20029;-71
2022/03/25 04:29:02;;;;;;;6.00;3.33;;;;;;;;;;5036295;28;20496;-70
2022/03/25 04:31:28;;;;;;;6.27;3.80;;;;;;;;;;5029603;28;20046;-69
2022/03/25 04:33:54;;;;;;;8.05;4.28;;;;;;;;;;5032251;28;20076;-70
2022/03/25 04:36:20;;;;;;;7.35;4.32;;;;;;;;;;5031510;28;20036;-70
2022/03/25 04:38:46;;;;;;;8.23;3.50;;;;;;;;;;5039834;28;20040;-70
2022/03/25 04:41:14;;;;;;;7.53;3.95;;;;;;;;;;5044223;28;20468;-67
2022/03/25 04:43:40;;;;;;;7.35;3.88;;;;;;;;;;5040543;28;20064;-70
2022/03/25 04:46:08;;;;;;;6.07;3.75;;;;;;;;;;5048616;28;20020;-70
2022/03/25 04:48:34;;;;;;;6.40;3.92;;;;;;;;;;5035660;28;20052;-70
2022/03/25 04:51:00;;;;;;;8.30;4.22;;;;;;;;;;5039518;28;20021;-69
2022/03/25 04:53:27;;;;;;;8.43;3.70;;;;;;;;;;5044779;28;20037;-71
2022/03/25 04:55:53;;;;;;;7.38;3.60;;;;;;;;;;5043968;28;20079;-70
2022/03/25 04:58:20;;;;;;;7.43;3.78;;;;;;;;;;5046640;28;20029;-70
2022/03/25 05:00:47;;;;;;;6.65;3.80;;;;;;;;;;5049131;28;20112;-69
2022/03/25 05:03:13;;;;;;;7.80;3.90;;;;;;;;;;5033803;28;20490;-70
2022/03/25 05:05:42;;;;;;;8.38;3.67;;;;;;;;;;5034297;28;20017;-71
2022/03/25 05:08:09;;;;;;;6.95;3.55;;;;;;;;;;5032233;28;20018;-71
2022/03/25 05:10:35;;;;;;;8.23;4.15;;;;;;;;;;5030208;28;20721;-70
2022/03/25 05:13:01;;;;;;;6.72;3.72;;;;;;;;;;5041139;28;20038;-70
2022/03/25 05:15:27;;;;;;;6.75;3.70;;;;;;;;;;5035153;28;20030;-70
2022/03/25 05:17:53;;;;;;;7.22;3.80;;;;;;;;;;5035679;28;20033;-70
2022/03/25 05:20:20;;;;;;;9.55;4.10;;;;;;;;;;5033381;28;20040;-71
2022/03/25 05:22:47;;;;;;;8.32;3.65;;;;;;;;;;5029976;28;20086;-71
2022/03/25 05:25:13;;;;;;;11.50;4.00;;;;;;;;;;5030791;28;20120;-70
2022/03/25 05:27:52;;;;;;;7.57;3.80;;;;;;;;;;5033053;28;20436;-70
2022/03/25 05:30:22;;;;;;;7.88;3.70;;;;;;;;;;5031396;28;20076;-69
2022/03/25 05:32:48;;;;;;;6.65;3.90;;;;;;;;;;5031960;28;20041;-69
2022/03/25 05:35:14;;;;;;;7.65;3.88;;;;;;;;;;5033530;28;20059;-70
2022/03/25 05:37:40;;;;;;;8.43;3.72;;;;;;;;;;5033265;28;20041;-70
2022/03/25 05:40:07;;;;;;;8.30;4.32;;;;;;;;;;5034529;28;20034;-70
2022/03/25 05:42:34;;;;;;;6.75;3.80;;;;;;;;;;5031215;28;20504;-70
2022/03/25 05:45:00;;;;;;;6.25;3.63;;;;;;;;;;5031781;28;20026;-70
2022/03/25 05:47:26;;;;;;;7.07;3.70;;;;;;;;;;5035056;28;20107;-70
2022/03/25 05:49:52;;;;;;;9.25;4.60;;;;;;;;;;5043650;28;20123;-70
2022/03/25 05:52:18;;;;;;;7.10;4.32;;;;;;;;;;5046700;28;20432;-69
2022/03/25 05:54:45;;;;;;;7.30;4.07;;;;;;;;;;5047625;28;20554;-69
2022/03/25 05:57:11;;;;;;;7.55;3.92;;;;;;;;;;5042605;28;20035;-70
2022/03/25 05:59:37;;;;;;;8.90;3.95;;;;;;;;;;5042369;28;20060;-68
2022/03/25 06:02:03;;;;;;;9.30;4.38;;;;;;;;;;5042693;28;20547;-69
2022/03/25 06:04:29;;;;;;;7.93;4.10;;;;;;;;;;5041768;28;20029;-67
2022/03/25 06:06:55;;;;;;;7.47;4.10;;;;;;;;;;5050661;28;20025;-68
2022/03/25 06:09:21;;;;;;;6.45;3.78;;;;;;;;;;5043915;28;20033;-69
2022/03/25 06:11:47;;;;;;;6.93;3.85;;;;;;;;;;5043032;28;20457;-70
2022/03/25 06:14:13;;;;;;;7.18;4.05;;;;;;;;;;5037812;28;20041;-71
2022/03/25 06:16:39;;;;;;;9.75;4.78;;;;;;;;;;5027780;28;20037;-68
2022/03/25 06:19:05;;;;;;;7.13;3.72;;;;;;;;;;5038642;28;20030;-69
2022/03/25 06:21:32;;;;;;;6.57;3.70;;;;;;;;;;5026568;28;20037;-68
2022/03/25 06:23:57;;;;;;;8.32;3.90;;;;;;;;;;5018812;28;20026;-70
2022/03/25 06:26:24;;;;;;;7.07;4.32;;;;;;;;;;5022114;28;20030;-72
2022/03/25 06:28:51;;;;;;;6.88;3.70;;;;;;;;;;5013695;28;20029;-69
2022/03/25 06:31:17;;;;;;;6.25;3.90;;;;;;;;;;5010825;28;20046;-71
2022/03/25 06:33:43;;;;;;;7.47;4.38;;;;;;;;;;5014323;28;20053;-70
2022/03/25 06:36:13;;;;;;;9.77;4.28;;;;;;;;;;5014601;28;20030;-72
2022/03/25 06:38:39;;;;;;;8.10;4.22;;;;;;;;;;5015096;28;20081;-69
2022/03/25 06:41:05;;;;;;;7.78;4.50;;;;;;;;;;5013651;28;20021;-67
2022/03/25 06:43:31;;;;;;;8.52;4.30;;;;;;;;;;5010797;28;20048;-67
2022/03/25 06:45:58;;;;;;;7.72;4.25;;;;;;;;;;5025675;28;20442;-66
2022/03/25 06:48:24;;;;;;;8.10;4.00;;;;;;;;;;5014933;28;20037;-69
2022/03/25 06:50:50;;;;;;;7.90;4.47;;;;;;;;;;5013464;28;20026;-65
2022/03/25 06:53:17;;;;;;;8.02;4.18;;;;;;;;;;5013560;28;20117;-62
2022/03/25 06:55:44;;;;;;;7.53;4.18;;;;;;;;;;5011779;28;20145;-68
2022/03/25 06:58:10;;;;;;;7.57;4.00;;;;;;;;;;5012586;28;20113;-67
2022/03/25 07:00:36;;;;;;;7.40;4.35;;;;;;;;;;5013460;28;20034;-67
2022/03/25 07:03:02;;;;;;;6.78;4.32;;;;;;;;;;5013908;28;20026;-67
2022/03/25 07:05:30;;;;;;;10.05;4.95;;;;;;;;;;5014107;28;20030;-67
2022/03/25 07:07:56;;;;;;;7.07;4.30;;;;;;;;;;5012637;28;20024;-69
2022/03/25 07:10:23;;;;;;;7.20;4.30;;;;;;;;;;5029888;28;20034;-69
2022/03/25 07:12:51;;;;;;;9.27;5.50;;;;;;;;;;5016986;28;20465;-69
2022/03/25 07:15:18;;;;;;;10.83;6.13;;;;;;;;;;5016455;28;20340;-67
2022/03/25 07:17:44;;;;;;;10.27;6.93;;;;;;;;;;5017818;28;20054;-69
2022/03/25 07:20:13;;;;;;;10.05;7.50;;;;;;;;;;5017040;28;20489;-70
2022/03/25 07:22:40;;;;;;;10.05;6.85;;;;;;;;;;5014212;28;20036;-70
2022/03/25 07:25:06;;;;;;;9.65;6.97;;;;;;;;;;5015284;28;20046;-69
2022/03/25 07:27:32;;;;;;;11.25;6.47;;;;;;;;;;5031999;28;20053;-69
2022/03/25 07:29:58;;;;;;;8.73;6.20;;;;;;;;;;5016780;28;20026;-67
2022/03/25 07:32:24;;;;;;;7.88;5.05;;;;;;;;;;5018610;28;20028;-67
2022/03/25 07:34:50;;;;;;;7.95;5.40;;;;;;;;;;5032173;28;20898;-67
2022/03/25 07:37:16;;;;;;;6.97;4.93;;;;;;;;;;5040919;28;20109;-68
2022/03/25 07:39:42;;;;;;;8.02;5.30;;;;;;;;;;5049338;28;20029;-68
2022/03/25 07:42:08;;;;;;;7.30;5.18;;;;;;;;;;5045342;28;20074;-69
2022/03/25 07:44:35;;;;;;;9.82;5.13;;;;;;;;;;5045503;28;20032;-69
2022/03/25 07:47:01;;;;;;;10.25;5.43;;;;;;;;;;5045449;28;20013;-68
2022/03/25 07:49:30;;;;;;;12.27;5.90;;;;;;;;;;5046369;28;20026;-69
2022/03/25 07:51:56;;;;;;;8.07;5.32;;;;;;;;;;5052402;28;20094;-68
2022/03/25 07:54:22;;;;;;;11.15;5.82;;;;;;;;;;5045549;28;20076;-69
2022/03/25 07:56:48;;;;;;;10.30;5.63;;;;;;;;;;5045270;28;20082;-69
2022/03/25 07:59:15;;;;;;;8.10;5.50;;;;;;;;;;5045106;28;20534;-69
2022/03/25 08:01:41;;;;;;;9.57;5.30;;;;;;;;;;5044086;28;20022;-67
2022/03/25 08:04:07;;;;;;;7.25;4.85;;;;;;;;;;5050263;28;20029;-69
2022/03/25 08:06:34;;;;;;;8.95;5.50;;;;;;;;;;5046940;28;20024;-73
2022/03/25 08:09:01;;;;;;;8.32;5.50;;;;;;;;;;5046095;28;20538;-70
2022/03/25 08:11:27;;;;;;;8.27;5.03;;;;;;;;;;5044280;28;20025;-68
2022/03/25 08:13:53;;;;;;;6.80;4.55;;;;;;;;;;5045774;28;20091;-70
2022/03/25 08:16:19;;;;;;;6.90;5.18;;;;;;;;;;5048178;28;20104;-69
2022/03/25 08:18:45;;;;;;;8.15;4.63;;;;;;;;;;5049124;28;20099;-69
2022/03/25 08:21:11;;;;;;;7.53;5.00;;;;;;;;;;5044095;28;20064;-69
2022/03/25 08:29:09;;;;;;;7.57;4.70;;;;;;;;;;5044989;28;20040;-69
2022/03/25 08:31:34;;;;;;;9.25;4.93;;;;;;;;;;5044256;28;20034;-69
2022/03/25 08:34:01;;;;;;;8.88;4.45;;;;;;;;;;5051825;28;20098;-69
2022/03/25 08:36:27;;;;;;;8.27;4.97;;;;;;;;;;5046164;28;20031;-69
2022/03/25 08:38:53;;;;;;;7.07;4.47;;;;;;;;;;5044047;28;20469;-70
2022/03/25 08:41:19;;;;;;;8.77;4.20;;;;;;;;;;5043928;28;20037;-69
2022/03/25 08:43:47;;;;;;;7.80;4.40;;;;;;;;;;5044165;28;20053;-69
2022/03/25 08:46:13;;;;;;;6.53;4.55;;;;;;;;;;5049209;28;20023;-68
2022/03/25 08:48:40;;;;;;;7.18;4.80;;;;;;;;;;5046441;28;20027;-71
2022/03/25 08:51:06;;;;;;;7.50;4.68;;;;;;;;;;5043044;28;20113;-69
2022/03/25 08:53:33;;;;;;;7.70;4.45;;;;;;;;;;5045494;28;20070;-69
2022/03/25 08:55:59;;;;;;;7.85;4.38;;;;;;;;;;5043765;28;20028;-70
2022/03/25 08:58:25;;;;;;;7.43;4.93;;;;;;;;;;5045477;28;20021;-69
2022/03/25 09:00:51;;;;;;;7.18;4.70;;;;;;;;;;5050398;28;20040;-68
2022/03/25 09:03:18;;;;;;;7.88;5.13;;;;;;;;;;5044326;28;20485;-68
2022/03/25 09:05:44;;;;;;;6.75;4.93;;;;;;;;;;5043653;28;20080;-68
2022/03/25 09:08:10;;;;;;;9.05;5.40;;;;;;;;;;5043281;28;20044;-68
2022/03/25 09:10:36;;;;;;;7.25;5.18;;;;;;;;;;5043453;28;20030;-69
2022/03/25 09:13:02;;;;;;;9.75;5.18;;;;;;;;;;5049284;28;20036;-68
2022/03/25 09:15:28;;;;;;;10.82;5.03;;;;;;;;;;5044113;28;20032;-68
2022/03/25 09:17:54;;;;;;;7.65;4.97;;;;;;;;;;5043249;28;20025;-69
2022/03/25 09:20:20;;;;;;;8.60;5.18;;;;;;;;;;5043517;28;20479;-69
2022/03/25 09:22:46;;;;;;;7.35;4.82;;;;;;;;;;5043714;28;20013;-69
2022/03/25 09:25:13;;;;;;;8.32;4.72;;;;;;;;;;5030783;28;20033;-69
2022/03/25 09:27:39;;;;;;;8.90;5.07;;;;;;;;;;5047692;28;20522;-69
2022/03/25 09:30:06;;;;;;;7.70;4.72;;;;;;;;;;5025872;28;20033;-70
2022/03/25 09:32:32;;;;;;;8.77;5.18;;;;;;;;;;5027941;28;20525;-70
2022/03/25 09:35:11;;;;;;;7.30;4.80;;;;;;;;;;5028958;28;20021;-70
2022/03/25 09:37:41;;;;;;;7.88;4.93;;;;;;;;;;5029414;28;20021;-69
2022/03/25 09:40:08;;;;;;;9.57;4.75;;;;;;;;;;5030178;28;20036;-69
2022/03/25 09:42:35;;;;;;;9.60;6.88;;;;;;;;;;5030743;28;20029;-68
2022/03/25 09:45:02;;;;;;;11.20;7.82;;;;;;;;;;5030564;28;20037;-70
2022/03/25 09:47:30;;;;;;;10.40;7.00;;;;;;;;;;5029827;28;20032;-68
2022/03/25 09:49:56;;;;;;;14.00;9.77;;;;;;;;;;5029076;28;20056;-70
2022/03/25 09:52:23;;;;;;;17.08;11.80;;;;;;;;;;5028639;28;20037;-69
2022/03/25 09:54:49;;;;;;;17.48;12.25;;;;;;;;;;5031875;28;20045;-69
2022/03/25 09:57:15;;;;;;;16.13;11.68;;;;;;;;;;5030481;28;20025;-69
2022/03/25 09:59:41;;;;;;;16.48;12.35;;;;;;;;;;5030141;28;20358;-69
2022/03/25 10:02:08;;;;;;;17.25;12.77;;;;;;;;;;5028056;28;20064;-68
2022/03/25 10:04:43;;;;;;;17.75;13.38;;;;;;;;;;5029216;28;20030;-67
2022/03/25 10:07:16;;;;;;;18.70;13.18;;;;;;;;;;5029747;28;20428;-68
2022/03/25 10:09:43;;;;;;;16.65;12.38;;;;;;;;;;5028325;28;20022;-69
2022/03/25 10:12:28;;;;;;;23.33;15.32;;;;;;;;;;5030806;28;20029;-69
2022/03/25 10:15:12;;;;;;;20.88;15.82;;;;;;;;;;5029869;28;20456;-69
2022/03/25 10:17:51;;;;;;;22.77;16.42;;;;;;;;;;5030910;28;20033;-70
2022/03/25 10:20:18;;;;;;;27.17;18.73;;;;;;;;;;5031330;28;20044;-69
2022/03/25 10:23:03;;;;;;;27.10;18.55;;;;;;;;;;5026647;28;20592;-69
2022/03/25 10:25:41;;;;;;;27.25;19.67;;;;;;;;;;5044977;28;20124;-69
2022/03/25 10:28:27;;;;;;;50.78;39.33;;;;;;;;;;5031112;28;20492;-69
2022/03/25 10:30:55;;;;;;;34.05;26.75;;;;;;;;;;5032001;28;20045;-69
2022/03/25 10:33:22;;;;;;;33.45;26.15;;;;;;;;;;5029292;28;20026;-69
2022/03/25 10:35:59;;;;;;;35.28;26.27;;;;;;;;;;5030296;28;20153;-69
2022/03/25 10:38:25;;;;;;;33.80;25.25;;;;;;;;;;5028707;28;20082;-69
2022/03/25 10:40:52;;;;;;;33.40;24.13;;;;;;;;;;5028885;28;20151;-69
2022/03/25 10:43:19;;;;;;;32.15;26.08;;;;;;;;;;5031613;28;20608;-70
2022/03/25 10:45:45;;;;;;;33.63;26.10;;;;;;;;;;5034473;28;20033;-69
2022/03/25 10:48:16;;;;;;;30.65;21.90;;;;;;;;;;5033139;28;20496;-69
2022/03/25 10:50:54;;;;;;;30.88;24.83;;;;;;;;;;5033688;28;20040;-69
2022/03/25 10:53:23;;;;;;;28.98;23.25;;;;;;;;;;5033064;28;20034;-69
2022/03/25 10:55:54;;;;;;;26.23;19.23;;;;;;;;;;5030686;28;20047;-69
2022/03/25 10:58:20;;;;;;;24.65;19.02;;;;;;;;;;5031466;28;20017;-68
2022/03/25 11:00:46;;;;;;;27.52;20.30;;;;;;;;;;5033887;28;20412;-69
2022/03/25 11:03:16;;;;;;;27.50;18.20;;;;;;;;;;5033704;28;20487;-68
2022/03/25 11:05:43;;;;;;;28.23;18.35;;;;;;;;;;5033289;28;20576;-69
2022/03/25 11:08:09;;;;;;;24.83;18.80;;;;;;;;;;5032487;28;20108;-69
2022/03/25 11:10:36;;;;;;;23.67;17.38;;;;;;;;;;5031530;28;20025;-69
2022/03/25 11:13:03;;;;;;;28.02;19.98;;;;;;;;;;5031277;28;20030;-69
2022/03/25 11:15:30;;;;;;;21.17;15.38;;;;;;;;;;5029238;28;20026;-68
2022/03/25 11:17:56;;;;;;;21.83;15.80;;;;;;;;;;5028861;28;20018;-68
2022/03/25 11:20:24;;;;;;;22.23;16.38;;;;;;;;;;5029457;28;20469;-68
2022/03/25 11:22:50;;;;;;;;;;;;;;;;;;5028971;28;20033;-70
2022/03/25 11:25:21;;;;;;;19.67;14.60;;;;;;;;;;5029915;28;20307;-69
2022/03/25 11:27:48;;;;;;;19.30;15.55;;;;;;;;;;5028679;28;20484;-67
2022/03/25 11:30:16;;;;;;;19.88;14.50;;;;;;;;;;5015673;28;20071;-68
2022/03/25 11:32:57;;;;;;;22.48;15.48;;;;;;;;;;5029118;28;20386;-66
2022/03/25 11:35:24;;;;;;;16.83;12.25;;;;;;;;;;5014069;28;20037;-66
2022/03/25 11:38:13;;;;;;;24.83;18.75;;;;;;;;;;5012268;28;20053;-67
2022/03/25 11:40:40;;;;;;;26.38;19.38;;;;;;;;;;5011547;28;20057;-66
2022/03/25 11:43:28;;;;;;;23.90;18.10;;;;;;;;;;5027886;28;20033;-66
2022/03/25 11:45:59;;;;;;;22.88;15.20;;;;;;;;;;5013191;28;20030;-67
2022/03/25 11:48:25;;;;;;;24.40;16.45;;;;;;;;;;5013849;28;20516;-68
2022/03/25 11:50:52;;;;;;;21.30;17.67;;;;;;;;;;5017168;28;20029;-68
2022/03/25 11:53:22;;;;;;;23.58;18.13;;;;;;;;;;5019074;28;20068;-68
2022/03/25 11:55:51;;;;;;;20.13;14.73;;;;;;;;;;5027592;28;20509;-68
2022/03/25 11:58:18;;;;;;;22.90;15.23;;;;;;;;;;5014789;28;20026;-68
2022/03/25 12:00:45;;;;;;;20.67;16.92;;;;;;;;;;5016360;28;20420;-68
2022/03/25 12:03:13;;;;;;;21.48;14.38;;;;;;;;;;5033112;28;20061;-68
2022/03/25 12:05:39;;;;;;;;;;;;;;;;;;5016613;28;20026;-69
2022/03/25 12:08:23;;;;;;;21.38;15.63;;;;;;;;;;5015868;28;19937;-68
2022/03/25 12:10:49;;;;;;;19.38;14.57;;;;;;;;;;5026403;28;20172;-68
2022/03/25 12:13:16;;;;;;;20.58;15.00;;;;;;;;;;5014608;28;20077;-68
2022/03/25 12:15:46;;;;;;;20.65;14.85;;;;;;;;;;5016451;28;20418;-68
2022/03/25 12:18:30;;;;;;;17.98;13.57;;;;;;;;;;5017267;28;20505;-68
2022/03/25 12:20:56;;;;;;;19.15;14.43;;;;;;;;;;5020693;28;20037;-68
2022/03/25 12:23:22;;;;;;;16.30;12.55;;;;;;;;;;5039971;28;20036;-68
2022/03/25 12:25:49;;;;;;;18.73;14.45;;;;;;;;;;5013357;28;20025;-68
2022/03/25 12:28:22;;;;;;;18.85;14.20;;;;;;;;;;5013938;28;20028;-68
2022/03/25 12:30:48;;;;;;;18.83;14.32;;;;;;;;;;5044334;28;20041;-69
2022/03/25 12:33:15;;;;;;;19.05;12.90;;;;;;;;;;5042082;28;20116;-68
2022/03/25 12:35:41;;;;;;;19.48;14.35;;;;;;;;;;5043070;28;20021;-68
2022/03/25 12:38:21;;;;;;;17.58;12.68;;;;;;;;;;5045485;28;20067;-68
2022/03/25 12:40:49;;;;;;;18.33;13.75;;;;;;;;;;5044225;28;20050;-69
2022/03/25 12:43:15;;;;;;;18.27;13.05;;;;;;;;;;5047068;28;20507;-69
2022/03/25 12:45:51;;;;;;;14.43;11.57;;;;;;;;;;5046614;28;20029;-69
2022/03/25 12:48:23;;;;;;;24.45;12.70;;;;;;;;;;5044327;28;20420;-68
2022/03/25 12:50:53;;;;;;;17.83;13.90;;;;;;;;;;5044041;28;20056;-68
2022/03/25 12:53:23;;;;;;;18.90;14.05;;;;;;;;;;5044809;28;20040;-69
2022/03/25 12:55:49;;;;;;;18.05;13.45;;;;;;;;;;5043925;28;20080;-69
2022/03/25 12:58:15;;;;;;;19.13;13.30;;;;;;;;;;5048278;28;20021;-68
2022/03/25 13:00:41;;;;;;;24.13;11.32;;;;;;;;;;5047391;28;20043;-68
2022/03/25 13:03:08;;;;;;;17.40;13.00;;;;;;;;;;5045692;28;20033;-68
2022/03/25 13:05:34;;;;;;;15.90;12.20;;;;;;;;;;5045531;28;20032;-68
2022/03/25 13:08:01;;;;;;;17.45;12.73;;;;;;;;;;5043232;28;20036;-68
2022/03/25 13:10:30;;;;;;;17.65;13.00;;;;;;;;;;5044533;28;20385;-68
2022/03/25 13:12:58;;;;;;;21.00;14.50;;;;;;;;;;5051111;28;20511;-68
2022/03/25 13:15:25;;;;;;;;;;;;;;;;;;5045245;28;20037;-68
2022/03/25 13:17:52;;;;;;;18.83;12.93;;;;;;;;;;5043570;28;19916;-68
2022/03/25 13:20:19;;;;;;;22.00;11.60;;;;;;;;;;5043603;28;20025;-69
2022/03/25 13:22:55;;;;;;;15.35;12.90;;;;;;;;;;5043283;28;20393;-68
2022/03/25 13:25:24;;;;;;;14.57;10.18;;;;;;;;;;5045300;28;20040;-68
2022/03/25 13:27:50;;;;;;;18.02;12.15;;;;;;;;;;5049398;28;20106;-68
2022/03/25 13:30:16;;;;;;;16.45;11.27;;;;;;;;;;5043349;28;20052;-68
2022/03/25 13:32:42;;;;;;;16.60;11.63;;;;;;;;;;5042666;28;20503;-69
2022/03/25 13:35:13;;;;;;;17.33;10.37;;;;;;;;;;5043124;28;20116;-68
2022/03/25 13:37:40;;;;;;;17.05;11.50;;;;;;;;;;5043139;28;20033;-69
2022/03/25 13:40:25;;;;;;;15.77;11.65;;;;;;;;;;5049296;28;20032;-69
2022/03/25 13:42:55;;;;;;;15.73;11.27;;;;;;;;;;5050174;28;20164;-70
2022/03/25 13:45:21;;;;;;;12.85;9.32;;;;;;;;;;5042400;28;20048;-69
2022/03/25 13:48:01;;;;;;;16.17;11.77;;;;;;;;;;5043155;28;20521;-69
2022/03/25 13:50:28;;;;;;;14.25;11.23;;;;;;;;;;5043537;28;20025;-69
2022/03/25 13:52:55;;;;;;;15.02;10.05;;;;;;;;;;5043149;28;20029;-69
2022/03/25 13:55:30;;;;;;;13.80;9.48;;;;;;;;;;5046206;28;20031;-69
2022/03/25 13:57:57;;;;;;;16.85;11.77;;;;;;;;;;5050414;28;20045;-68
2022/03/25 14:00:30;;;;;;;14.27;11.57;;;;;;;;;;5047198;28;20120;-67
2022/03/25 14:02:56;;;;;;;17.50;10.77;;;;;;;;;;5039038;28;20583;-68
2022/03/25 14:05:25;;;;;;;16.48;11.23;;;;;;;;;;5042765;28;20021;-68
2022/03/25 14:07:57;;;;;;;15.95;11.15;;;;;;;;;;5042384;28;20033;-68
2022/03/25 14:10:23;;;;;;;15.05;10.93;;;;;;;;;;5039308;28;20087;-68
2022/03/25 14:12:58;;;;;;;14.65;10.80;;;;;;;;;;5032191;28;20026;-68
2022/03/25 14:15:28;;;;;;;15.82;11.32;;;;;;;;;;5033760;28;20021;-70
2022/03/25 14:17:55;;;;;;;18.15;10.95;;;;;;;;;;5033518;28;20022;-69
2022/03/25 14:20:22;;;;;;;14.07;10.90;;;;;;;;;;5034664;28;20088;-69
2022/03/25 14:22:52;;;;;;;16.27;11.18;;;;;;;;;;5046754;28;20539;-70
2022/03/25 14:25:19;;;;;;;16.13;11.25;;;;;;;;;;5050784;28;20499;-69
2022/03/25 14:27:47;;;;;;;13.20;9.85;;;;;;;;;;5050824;28;20412;-69
2022/03/25 14:30:13;;;;;;;14.13;10.25;;;;;;;;;;5046107;28;20049;-70
2022/03/25 14:32:39;;;;;;;10.73;7.50;;;;;;;;;;5046549;28;20472;-69
2022/03/25 14:35:05;;;;;;;15.48;10.82;;;;;;;;;;5040098;28;20057;-70
2022/03/25 14:37:31;;;;;;;17.13;10.85;;;;;;;;;;5046805;28;20071;-69
2022/03/25 14:39:57;;;;;;;14.90;11.35;;;;;;;;;;5060603;28;20025;-69
2022/03/25 14:42:23;;;;;;;13.98;11.02;;;;;;;;;;5045994;28;20021;-70